sensor_id;sensor_type;location;lat;lon;timestamp;P1;durP1;ratioP1;P2;durP2;ratioP2
7110;SDS011;3597;42.650;23.386;2024-02-16T17:46:37;10.18;;;8.07;;
7110;SDS011;3597;42.650;23.386;2024-02-16T17:49:02;13.98;;;8.65;;
7110;SDS011;3597;42.650;23.386;2024-02-16T17:51:28;9.20;;;7.82;;
7110;SDS011;3597;42.650;23.386;2024-02-16T17:53:53;11.85;;;7.88;;
7110;SDS011;3597;42.650;23.386;2024-02-16T17:56:19;17.77;;;8.30;;
7110;SDS011;3597;42.650;23.386;2024-02-16T17:58:45;10.95;;;7.43;;
7110;SDS011;3597;42.650;23.386;2024-02-16T18:01:11;9.32;;;7.03;;
7110;SDS011;3597;42.650;23.386;2024-02-16T18:03:37;12.70;;;7.65;;
7110;SDS011;3597;42.650;23.386;2024-02-16T18:06:04;11.35;;;7.93;;
7110;SDS011;3597;42.650;23.386;2024-02-16T18:08:30;13.90;;;8.52;;
7110;SDS011;3597;42.650;23.386;2024-02-16T18:10:55;16.90;;;7.78;;
7110;SDS011;3597;42.650;23.386;2024-02-16T18:13:21;11.23;;;7.20;;
7110;SDS011;3597;42.650;23.386;2024-02-16T18:15:47;14.23;;;7.93;;
7110;SDS011;3597;42.650;23.386;2024-02-16T18:18:20;12.32;;;7.75;;
7110;SDS011;3597;42.650;23.386;2024-02-16T18:20:45;12.32;;;7.55;;
7110;SDS011;3597;42.650;23.386;2024-02-16T18:23:11;13.25;;;7.25;;
7110;SDS011;3597;42.650;23.386;2024-02-16T18:25:36;14.77;;;8.68;;
7110;SDS011;3597;42.650;23.386;2024-02-16T18:28:02;14.95;;;7.70;;
7110;SDS011;3597;42.650;23.386;2024-02-16T18:30:27;25.17;;;7.30;;
7110;SDS011;3597;42.650;23.386;2024-02-16T18:32:54;10.25;;;6.18;;
7110;SDS011;3597;42.650;23.386;2024-02-16T18:35:19;11.25;;;6.75;;
7110;SDS011;3597;42.650;23.386;2024-02-16T18:37:45;7.53;;;6.82;;
7110;SDS011;3597;42.650;23.386;2024-02-16T18:40:11;18.73;;;7.75;;
7110;SDS011;3597;42.650;23.386;2024-02-16T18:42:37;8.98;;;6.22;;
7110;SDS011;3597;42.650;23.386;2024-02-16T18:45:02;14.88;;;6.82;;
7110;SDS011;3597;42.650;23.386;2024-02-16T18:47:33;14.68;;;6.25;;
7110;SDS011;3597;42.650;23.386;2024-02-16T18:50:02;9.82;;;6.20;;
7110;SDS011;3597;42.650;23.386;2024-02-16T18:52:29;13.18;;;7.00;;
7110;SDS011;3597;42.650;23.386;2024-02-16T18:54:56;13.30;;;6.18;;
7110;SDS011;3597;42.650;23.386;2024-02-16T18:57:21;8.63;;;6.85;;
7110;SDS011;3597;42.650;23.386;2024-02-16T18:59:47;11.40;;;6.03;;
7110;SDS011;3597;42.650;23.386;2024-02-16T19:02:13;8.15;;;6.60;;
7110;SDS011;3597;42.650;23.386;2024-02-16T19:04:38;9.98;;;6.22;;
7110;SDS011;3597;42.650;23.386;2024-02-16T19:07:04;13.20;;;6.25;;
7110;SDS011;3597;42.650;23.386;2024-02-16T19:09:29;12.85;;;6.15;;
7110;SDS011;3597;42.650;23.386;2024-02-16T19:11:55;16.45;;;5.95;;
7110;SDS011;3597;42.650;23.386;2024-02-16T19:14:23;19.77;;;6.40;;
7110;SDS011;3597;42.650;23.386;2024-02-16T19:16:49;28.83;;;8.80;;
7110;SDS011;3597;42.650;23.386;2024-02-16T19:19:15;10.15;;;5.45;;
7110;SDS011;3597;42.650;23.386;2024-02-16T19:21:40;14.60;;;5.90;;
7110;SDS011;3597;42.650;23.386;2024-02-16T19:24:07;7.97;;;5.28;;
7110;SDS011;3597;42.650;23.386;2024-02-16T19:26:33;12.32;;;6.25;;
7110;SDS011;3597;42.650;23.386;2024-02-16T19:28:59;12.95;;;6.32;;
7110;SDS011;3597;42.650;23.386;2024-02-16T19:31:25;9.05;;;5.65;;
7110;SDS011;3597;42.650;23.386;2024-02-16T19:33:50;11.65;;;4.65;;
7110;SDS011;3597;42.650;23.386;2024-02-16T19:36:16;12.57;;;5.72;;
7110;SDS011;3597;42.650;23.386;2024-02-16T19:38:41;14.40;;;8.45;;
7110;SDS011;3597;42.650;23.386;2024-02-16T19:41:08;27.65;;;9.60;;
7110;SDS011;3597;42.650;23.386;2024-02-16T19:43:34;12.23;;;7.43;;
7110;SDS011;3597;42.650;23.386;2024-02-16T19:45:59;8.35;;;6.75;;
7110;SDS011;3597;42.650;23.386;2024-02-16T19:48:27;10.85;;;7.45;;
7110;SDS011;3597;42.650;23.386;2024-02-16T19:50:53;15.15;;;7.60;;
7110;SDS011;3597;42.650;23.386;2024-02-16T19:53:18;9.27;;;7.55;;
7110;SDS011;3597;42.650;23.386;2024-02-16T19:55:44;8.13;;;6.97;;
7110;SDS011;3597;42.650;23.386;2024-02-16T19:58:11;8.75;;;6.88;;
7110;SDS011;3597;42.650;23.386;2024-02-16T20:00:36;12.20;;;7.22;;
7110;SDS011;3597;42.650;23.386;2024-02-16T20:03:02;9.45;;;6.45;;
7110;SDS011;3597;42.650;23.386;2024-02-16T20:05:28;8.55;;;6.68;;
7110;SDS011;3597;42.650;23.386;2024-02-16T20:07:55;7.20;;;5.88;;
7110;SDS011;3597;42.650;23.386;2024-02-16T20:10:22;9.93;;;6.43;;
7110;SDS011;3597;42.650;23.386;2024-02-16T20:12:47;8.68;;;6.65;;
7110;SDS011;3597;42.650;23.386;2024-02-16T20:15:13;11.18;;;7.15;;
7110;SDS011;3597;42.650;23.386;2024-02-16T20:17:40;7.30;;;5.63;;
7110;SDS011;3597;42.650;23.386;2024-02-16T20:20:06;9.90;;;5.00;;
7110;SDS011;3597;42.650;23.386;2024-02-16T20:22:32;12.60;;;5.80;;
7110;SDS011;3597;42.650;23.386;2024-02-16T20:24:57;9.07;;;5.47;;
7110;SDS011;3597;42.650;23.386;2024-02-16T20:27:23;6.55;;;5.85;;
7110;SDS011;3597;42.650;23.386;2024-02-16T20:29:49;8.05;;;5.57;;
7110;SDS011;3597;42.650;23.386;2024-02-16T20:32:14;7.70;;;5.47;;
7110;SDS011;3597;42.650;23.386;2024-02-16T20:34:40;10.13;;;5.18;;
7110;SDS011;3597;42.650;23.386;2024-02-16T20:37:06;7.40;;;5.18;;
7110;SDS011;3597;42.650;23.386;2024-02-16T20:39:31;5.90;;;5.30;;
7110;SDS011;3597;42.650;23.386;2024-02-16T20:42:00;8.95;;;5.60;;
7110;SDS011;3597;42.650;23.386;2024-02-16T20:44:26;7.07;;;5.47;;
7110;SDS011;3597;42.650;23.386;2024-02-16T20:46:52;11.43;;;5.68;;
7110;SDS011;3597;42.650;23.386;2024-02-16T20:49:18;10.02;;;7.38;;
7110;SDS011;3597;42.650;23.386;2024-02-16T20:51:43;7.10;;;5.20;;
7110;SDS011;3597;42.650;23.386;2024-02-16T20:54:14;6.22;;;5.00;;
7110;SDS011;3597;42.650;23.386;2024-02-16T20:56:42;6.15;;;5.18;;
7110;SDS011;3597;42.650;23.386;2024-02-16T20:59:08;7.70;;;4.97;;
7110;SDS011;3597;42.650;23.386;2024-02-16T21:01:34;8.77;;;5.63;;
7110;SDS011;3597;42.650;23.386;2024-02-16T21:04:00;7.07;;;5.05;;
7110;SDS011;3597;42.650;23.386;2024-02-16T21:06:26;7.47;;;4.75;;
7110;SDS011;3597;42.650;23.386;2024-02-16T21:08:51;7.13;;;5.00;;
7110;SDS011;3597;42.650;23.386;2024-02-16T21:11:17;7.72;;;5.57;;
7110;SDS011;3597;42.650;23.386;2024-02-16T21:13:43;5.38;;;4.85;;
7110;SDS011;3597;42.650;23.386;2024-02-16T21:16:10;5.47;;;4.97;;
7110;SDS011;3597;42.650;23.386;2024-02-16T21:18:37;6.10;;;4.85;;
7110;SDS011;3597;42.650;23.386;2024-02-16T21:21:02;4.82;;;4.28;;
7110;SDS011;3597;42.650;23.386;2024-02-16T21:23:29;5.63;;;5.05;;
7110;SDS011;3597;42.650;23.386;2024-02-16T21:25:55;5.68;;;4.60;;
7110;SDS011;3597;42.650;23.386;2024-02-16T21:28:20;5.95;;;4.60;;
7110;SDS011;3597;42.650;23.386;2024-02-16T21:30:46;6.03;;;4.65;;
7110;SDS011;3597;42.650;23.386;2024-02-16T21:33:12;4.72;;;4.30;;
7110;SDS011;3597;42.650;23.386;2024-02-16T21:35:38;3.90;;;3.60;;
7110;SDS011;3597;42.650;23.386;2024-02-16T21:38:05;5.05;;;4.65;;
7110;SDS011;3597;42.650;23.386;2024-02-16T21:40:31;4.90;;;4.50;;
7110;SDS011;3597;42.650;23.386;2024-02-16T21:42:59;4.63;;;4.22;;
7110;SDS011;3597;42.650;23.386;2024-02-16T21:45:25;5.13;;;4.63;;
7110;SDS011;3597;42.650;23.386;2024-02-16T21:47:51;4.55;;;4.15;;
7110;SDS011;3597;42.650;23.386;2024-02-16T21:50:17;4.63;;;4.07;;
7110;SDS011;3597;42.650;23.386;2024-02-16T21:52:43;4.43;;;3.75;;
7110;SDS011;3597;42.650;23.386;2024-02-16T21:55:11;5.53;;;3.90;;
7110;SDS011;3597;42.650;23.386;2024-02-16T21:57:37;5.95;;;4.43;;
7110;SDS011;3597;42.650;23.386;2024-02-16T22:00:04;5.47;;;4.25;;
7110;SDS011;3597;42.650;23.386;2024-02-16T22:02:31;6.20;;;4.00;;
7110;SDS011;3597;42.650;23.386;2024-02-16T22:04:57;4.28;;;3.88;;
7110;SDS011;3597;42.650;23.386;2024-02-16T22:07:23;4.30;;;3.90;;
7110;SDS011;3597;42.650;23.386;2024-02-16T22:09:49;4.32;;;3.92;;
7110;SDS011;3597;42.650;23.386;2024-02-16T22:12:14;5.63;;;5.05;;
7110;SDS011;3597;42.650;23.386;2024-02-16T22:14:40;4.13;;;3.65;;
7110;SDS011;3597;42.650;23.386;2024-02-16T22:17:06;4.03;;;3.72;;
7110;SDS011;3597;42.650;23.386;2024-02-16T22:19:31;3.90;;;3.50;;
7110;SDS011;3597;42.650;23.386;2024-02-16T22:21:57;4.07;;;3.72;;
7110;SDS011;3597;42.650;23.386;2024-02-16T22:24:23;3.90;;;3.55;;
7110;SDS011;3597;42.650;23.386;2024-02-16T22:26:48;5.00;;;3.90;;
7110;SDS011;3597;42.650;23.386;2024-02-16T22:29:17;4.53;;;3.45;;
7110;SDS011;3597;42.650;23.386;2024-02-16T22:31:43;6.68;;;4.00;;
7110;SDS011;3597;42.650;23.386;2024-02-16T22:34:08;4.55;;;4.15;;
7110;SDS011;3597;42.650;23.386;2024-02-16T22:36:34;5.53;;;5.03;;
7110;SDS011;3597;42.650;23.386;2024-02-16T22:38:59;3.97;;;3.58;;
7110;SDS011;3597;42.650;23.386;2024-02-16T22:41:25;4.15;;;3.78;;
7110;SDS011;3597;42.650;23.386;2024-02-16T22:43:50;4.55;;;4.15;;
7110;SDS011;3597;42.650;23.386;2024-02-16T22:46:16;4.63;;;4.22;;
7110;SDS011;3597;42.650;23.386;2024-02-16T22:48:41;4.80;;;4.10;;
7110;SDS011;3597;42.650;23.386;2024-02-16T22:51:07;4.18;;;3.78;;
7110;SDS011;3597;42.650;23.386;2024-02-16T22:53:32;3.45;;;3.13;;
7110;SDS011;3597;42.650;23.386;2024-02-16T22:56:00;4.82;;;3.78;;
7110;SDS011;3597;42.650;23.386;2024-02-16T22:58:26;3.95;;;3.55;;
7110;SDS011;3597;42.650;23.386;2024-02-16T23:00:51;3.90;;;3.50;;
7110;SDS011;3597;42.650;23.386;2024-02-16T23:03:21;6.43;;;4.68;;
7110;SDS011;3597;42.650;23.386;2024-02-16T23:05:46;4.20;;;3.80;;
7110;SDS011;3597;42.650;23.386;2024-02-16T23:08:12;3.58;;;3.25;;
7110;SDS011;3597;42.650;23.386;2024-02-16T23:10:41;3.72;;;3.42;;
7110;SDS011;3597;42.650;23.386;2024-02-16T23:13:08;3.55;;;3.25;;
7110;SDS011;3597;42.650;23.386;2024-02-16T23:15:37;3.55;;;3.30;;
7110;SDS011;3597;42.650;23.386;2024-02-16T23:18:03;5.15;;;3.22;;
7110;SDS011;3597;42.650;23.386;2024-02-16T23:20:29;4.10;;;3.70;;
7110;SDS011;3597;42.650;23.386;2024-02-16T23:23:05;4.60;;;3.67;;
7110;SDS011;3597;42.650;23.386;2024-02-16T23:25:36;4.07;;;3.55;;
7110;SDS011;3597;42.650;23.386;2024-02-16T23:28:04;5.43;;;4.38;;
7110;SDS011;3597;42.650;23.386;2024-02-16T23:30:30;5.32;;;4.38;;
7110;SDS011;3597;42.650;23.386;2024-02-16T23:32:56;4.93;;;3.67;;
7110;SDS011;3597;42.650;23.386;2024-02-16T23:35:22;3.95;;;3.55;;
7110;SDS011;3597;42.650;23.386;2024-02-16T23:37:48;3.58;;;3.28;;
7110;SDS011;3597;42.650;23.386;2024-02-16T23:40:14;4.45;;;3.78;;
7110;SDS011;3597;42.650;23.386;2024-02-16T23:42:40;5.22;;;3.53;;
7110;SDS011;3597;42.650;23.386;2024-02-16T23:45:12;6.43;;;3.67;;
7110;SDS011;3597;42.650;23.386;2024-02-16T23:47:39;4.00;;;3.70;;
7110;SDS011;3597;42.650;23.386;2024-02-16T23:50:05;6.22;;;3.90;;
7110;SDS011;3597;42.650;23.386;2024-02-16T23:52:31;5.00;;;3.22;;
7110;SDS011;3597;42.650;23.386;2024-02-16T23:54:58;4.32;;;3.92;;
7110;SDS011;3597;42.650;23.386;2024-02-16T23:57:26;4.85;;;3.72;;
7110;SDS011;3597;42.650;23.386;2024-02-16T23:59:52;4.60;;;4.20;;
